Hartsfield Jackson Atlanta International Airport
KATL : now visible

Airfield :











YOU CAN JOIN US ON...

 
LOGIN :

Register | Disclaimer

   EN    FR    IT 

 









Legend :    VFR   Marginal VFR   IFR   Intensive IFR   Very Intensive IFR
Visi :
Ceiling :
>= 8 km
>= 3000ft
5 to 8 km
1000 to 3000 ft
1500m to 5 km
500 to 1000 ft
800 to 1500m
200 to 500 ft
< 800m
< 200 ft
Symbols :   Thunderstorms  Fog  Heavy snow  Heavy precipitations  Wind > 20 kt






- Airport Elevation : 1026 ft
- IATA code : ATL


KATL - Hartsfield Jackson Atlanta International

CURRENT METAR :
  • 280452Z 20013G20KT 10SM BKN033 BKN200 19/13 A2992 RMK AO2 PK WND 21026/0420 SLP124 T01940133 402280133

EXPIRED METARs :
  • 280352Z 20010G20KT 10SM BKN032 BKN150 BKN200 20/14 A2993 RMK AO2 PK WND 20026/0321 SLP129 T02000139
  • 280252Z 19011G23KT 10SM SCT035 BKN150 OVC200 21/14 A2992 RMK AO2 PK WND 19027/0213 SLP125 T02060139 56002
  • 280152Z 19014G24KT 10SM SCT040 BKN130 OVC200 21/14 A2992 RMK AO2 SLP127 VIRGA OHD-ALQDS T02110144
  • 280052Z 19011G24KT 10SM FEW040 BKN140 OVC200 22/15 A2991 RMK AO2 SLP124 VIRGA OHD-ALQDS T02170150

TAF KATL
Valid from the 28 at 06:00 until the 29 at 12:00 UTC


280522Z 2806/2912 20012G26KT P6SM BKN025
FM281600 23016G31KT P6SM BKN025
FM281900 29018G32KT P6SM -SHRA SCT012 OVC025
TEMPO 2819/2822 3SM SHRA BKN012
FM282300 32018G36KT P6SM SCT025 SCT040
FM290300 33016G28KT P6SM SCT250
FM290900 34009KT P6SM SCT250
KZTL FIR / North America



MET'MAP, your aeronautical weather chart ! - Copyright ORBIFLY December 2007 - Disclaimer

ORBIFLY MET'MAP TEAM :

Programming & Development : Alexandra Zaïnal
Original concept : Baudouin d'Aumeries
Technical & hardware support : Manuel Goepfert
Assistance : Marc-Olivier Méhu




SOURCES & CREDITS :

   NOAA       Earth
Advisory